HELENS Weather Reports


Display with metric or nautical units.
time (UTC)temp
F
wind
direction
speed
MPH
gust
MPH
rain 1hr
in
rain 24hr
in
rain mn
in
humidity
%
barometer
mb
20191014113847 35 62 0.0 0.0 0.00 0.00 0.00 98
20191014112049 37 62 0.0 0.0 0.00 0.00 0.00 95
20191014104527 37 62 0.0 0.0 0.00 0.00 0.00 95
20191014102647 40 311 0.0 0.0 0.00 0.00 0.00 97
20191014095152 40 311 0.0 0.0 0.00 0.00 0.00 97
20191014093200 42 287 0.0 0.0 0.00 0.00 0.00 99
20191014085712 42 287 0.0 0.0 0.00 0.00 0.00 99
20191014083821 42 315 0.0 1.0 0.00 0.00 0.00 97
20191014080552 42 315 0.0 1.0 0.00 0.00 0.00 97
20191014074302 43 326 1.0 5.0 0.00 0.00 0.00 98
20191014071302 43 326 1.0 5.0 0.00 0.00 0.00 98
20191014064746 44 305 1.0 5.0 0.00 0.00 0.00 97
20191014061933 44 305 1.0 5.0 0.00 0.00 0.00 97
20191014055335 44 335 0.0 0.0 0.00 0.00 0.00 95
20191014052637 44 335 0.0 0.0 0.00 0.00 0.00 95
20191014050054 43 335 0.0 0.0 0.00 0.00 0.00 93
20191014043317 43 335 0.0 0.0 0.00 0.00 0.00 93
20191014040636 45 304 0.0 0.0 0.00 0.00 0.00 89
20191014034027 43 335 0.0 0.0 0.00 0.00 0.00 93
20191014031341 45 304 0.0 0.0 0.00 0.00 0.00 89
20191014024432 45 304 0.0 0.0 0.00 0.00 0.00 89
20191014021811 47 297 0.0 0.0 0.00 0.00 0.00 79
20191014015222 47 297 0.0 0.0 0.00 0.00 0.00 79
20191014012626 47 323 0.0 3.0 0.00 0.00 0.00 75
20191014010037 47 323 0.0 3.0 0.00 0.00 0.00 75
20191014003340 47 311 5.0 9.0 0.00 0.00 0.00 76
20191014000807 47 311 5.0 9.0 0.00 0.00 0.00 76
20191013233949 49 305 3.0 8.0 0.00 0.00 0.00 79
20191013231447 49 305 3.0 8.0 0.00 0.00 0.00 79
20191013224716 51 291 1.0 6.0 0.00 0.00 0.00 75
20191013222122 51 291 1.0 6.0 0.00 0.00 0.00 75
20191013215636 54 247 0.0 1.0 0.00 0.00 0.00 66
20191013212658 54 247 0.0 1.0 0.00 0.00 0.00 66
20191013210411 52 263 0.0 3.0 0.00 0.00 0.00 73
20191013203347 52 263 0.0 3.0 0.00 0.00 0.00 73
20191013201052 52 263 0.0 3.0 0.00 0.00 0.00 73
20191013193912 52 263 0.0 3.0 0.00 0.00 0.00 73
20191013191536 52 239 0.0 0.0 0.00 0.00 0.00 72
20191013184530 52 239 0.0 0.0 0.00 0.00 0.00 72
20191013181937 48 122 0.0 0.0 0.00 0.00 0.00 81
20191013175152 48 122 0.0 0.0 0.00 0.00 0.00 81
20191013172611 45 59 0.0 0.0 0.00 0.00 0.00 88
20191013165832 45 59 0.0 0.0 0.00 0.00 0.00 88
20191013162941 44 18 0.0 0.0 0.00 0.00 0.00 91
20191013160602 44 18 0.0 0.0 0.00 0.00 0.00 91
20191013153535 43 355 0.0 3.0 0.00 0.00 0.00 88
20191013151132 43 355 0.0 3.0 0.00 0.00 0.00 88
20191013144211 45 317 0.0 4.0 0.00 0.00 0.00 85
20191013141527 45 317 0.0 4.0 0.00 0.00 0.00 85
20191013134720 45 332 0.0 0.0 0.00 0.00 0.00 86
20191013132022 45 332 0.0 0.0 0.00 0.00 0.00 86
20191013125558 44 63 0.0 0.0 0.00 0.00 0.00 91
20191013122707 44 63 0.0 0.0 0.00 0.00 0.00 91
20191013120451 45 74 0.0 0.0 0.00 0.00 0.00 90